Time;durP1;ratioP1;P1;durP2;ratioP2;P2;SDS_P1;SDS_P2;PMS_P1;PMS_P2;Temp;Humidity;BMP_temperature;BMP_pressure;BME280_temperature;BME280_humidity;BME280_pressure;Samples;Min_cycle;Max_cycle;Signal;HPM_P1;HPM_P2
2021/12/13 00:01:10;;;;;;;3.23;1.80;;;1.70;99.90;1.50;97306.00;;;;5061954;28;20427;-77
2021/12/13 00:04:04;;;;;;;7.63;2.23;;;1.70;99.90;1.40;97312.00;;;;5081649;28;20419;-77
2021/12/13 00:06:57;;;;;;;2.53;1.80;;;1.70;99.90;1.40;97294.00;;;;5053752;28;20423;-78
2021/12/13 00:09:53;;;;;;;4.10;1.87;;;1.60;99.90;1.40;97305.00;;;;5031088;28;20420;-78
2021/12/13 00:12:49;;;;;;;2.97;2.13;;;1.60;99.90;1.40;97301.00;;;;5054989;28;20774;-77
2021/12/13 00:15:49;;;;;;;2.50;1.50;;;1.60;99.90;1.40;97294.00;;;;5052996;28;20467;-78
2021/12/13 00:18:43;;;;;;;1.30;1.20;;;1.50;99.90;1.40;97294.00;;;;5036098;28;20422;-75
2021/12/13 00:21:38;;;;;;;1.30;1.20;;;1.50;99.90;1.50;97289.00;;;;5048983;28;20480;-77
2021/12/13 00:24:32;;;;;;;3.33;1.57;;;1.60;99.90;1.30;97303.00;;;;5038225;28;20425;-78
2021/12/13 00:27:25;;;;;;;2.70;1.57;;;1.60;99.90;1.40;97287.00;;;;5043608;28;20461;-79
2021/12/13 00:30:28;;;;;;;3.30;1.63;;;1.60;99.90;1.30;97288.00;;;;5051480;28;20438;-77
2021/12/13 00:33:34;;;;;;;3.97;1.93;;;1.60;99.90;1.40;97294.00;;;;5053379;28;20438;-78
2021/12/13 00:36:31;;;;;;;5.63;2.20;;;1.60;99.90;1.40;97294.00;;;;5035714;28;20443;-78
2021/12/13 00:39:26;;;;;;;2.27;1.77;;;1.60;99.90;1.40;97294.00;;;;5034955;28;20448;-79
2021/12/13 00:42:16;;;;;;;2.17;1.83;;;1.60;99.90;1.30;97291.00;;;;5053639;28;20514;-80
2021/12/13 00:45:10;;;;;;;3.53;1.83;;;1.60;99.90;1.30;97293.00;;;;5045133;28;20424;-78
2021/12/13 00:48:04;;;;;;;1.77;1.50;;;1.50;99.90;1.20;97284.00;;;;5056828;28;20432;-78
2021/12/13 00:51:01;;;;;;;3.90;2.10;;;1.50;99.90;1.20;97282.00;;;;5058339;28;20446;-79
2021/12/13 00:53:52;;;;;;;2.90;2.33;;;1.50;99.90;1.20;97283.00;;;;5050726;28;20805;-79
2021/12/13 00:57:28;;;;;;;4.23;2.47;;;1.50;99.90;1.20;97276.00;;;;5050015;28;20434;-77
2021/12/13 01:00:27;;;;;;;2.83;2.50;;;1.40;99.90;1.10;97275.00;;;;5047768;28;20446;-77
2021/12/13 01:03:19;;;;;;;2.97;2.67;;;1.40;99.90;1.10;97281.00;;;;5053272;28;20479;-79
2021/12/13 01:07:40;;;;;;;4.97;2.37;;;1.40;99.90;1.20;97279.00;;;;5058150;28;20418;-79
2021/12/13 01:11:20;;;;;;;4.30;2.87;;;1.30;99.90;1.30;97288.00;;;;5046875;28;20433;-76
2021/12/13 01:14:40;;;;;;;7.23;3.73;;;1.40;99.90;1.30;97281.00;;;;5048636;28;20974;-78
2021/12/13 01:17:51;;;;;;;4.57;3.70;;;1.40;99.90;1.30;97278.00;;;;5048971;28;20931;-78
2021/12/13 01:21:00;;;;;;;4.43;2.30;;;1.40;99.90;1.40;97263.00;;;;5059414;28;20427;-79
2021/12/13 01:23:54;;;;;;;1.03;0.90;;;1.40;99.90;2.10;97279.00;;;;5044129;28;20790;-78
2021/12/13 01:26:47;;;;;;;0.50;0.50;;;1.60;99.90;2.40;97263.00;;;;5034427;28;20454;-79
2021/12/13 01:29:38;;;;;;;0.50;0.50;;;1.80;99.90;2.70;97277.00;;;;5035250;28;20432;-79
2021/12/13 01:32:37;;;;;;;0.60;0.60;;;2.20;99.90;2.80;97275.00;;;;5050136;28;20447;-78
2021/12/13 01:35:34;;;;;;;0.57;0.57;;;2.40;99.90;3.00;97267.00;;;;5047698;28;20470;-78
2021/12/13 01:38:32;;;;;;;0.40;0.40;;;2.60;99.90;3.00;97258.00;;;;5037920;28;20850;-78
2021/12/13 01:41:27;;;;;;;0.80;0.60;;;2.80;99.90;3.20;97275.00;;;;5037240;28;20966;-78
2021/12/13 01:44:21;;;;;;;0.43;0.43;;;3.00;99.90;3.30;97259.00;;;;5047789;28;20957;-77
2021/12/13 01:47:14;;;;;;;7.27;1.37;;;3.10;99.90;3.10;97276.00;;;;5044896;28;20435;-77
2021/12/13 01:50:09;;;;;;;0.47;0.47;;;3.20;99.90;3.10;97266.00;;;;5047197;28;20520;-77
2021/12/13 01:53:01;;;;;;;1.00;0.60;;;3.20;99.90;3.30;97266.00;;;;5046514;28;20458;-77
2021/12/13 01:55:50;;;;;;;0.60;0.60;;;3.30;99.90;3.40;97256.00;;;;5043107;28;20471;-77
2021/12/13 01:58:44;;;;;;;0.97;0.47;;;3.30;99.90;3.50;97265.00;;;;5053971;28;20430;-77
2021/12/13 02:01:34;;;;;;;2.30;0.53;;;3.40;99.90;3.40;97265.00;;;;5046767;28;20454;-77
2021/12/13 02:04:23;;;;;;;2.80;1.80;;;3.40;99.90;3.10;97263.00;;;;5047515;28;20531;-77
2021/12/13 02:07:13;;;;;;;1.33;1.00;;;3.40;99.90;2.90;97260.00;;;;5048682;28;20816;-77
2021/12/13 02:10:07;;;;;;;1.17;1.10;;;3.30;99.90;2.80;97261.00;;;;5051545;28;20201;-77
2021/12/13 02:13:02;;;;;;;1.13;1.03;;;3.20;99.90;2.80;97242.00;;;;5054465;28;20228;-76
2021/12/13 02:19:04;;;;;;;0.60;0.60;;;3.00;99.90;2.80;97247.00;;;;5026327;28;20432;-77
2021/12/13 02:22:24;;;;;;;0.57;0.57;;;2.90;99.90;2.80;97261.00;;;;5043607;28;20982;-77
2021/12/13 02:25:28;;;;;;;1.30;0.90;;;2.90;99.90;2.70;97261.00;;;;5044140;28;20215;-76
2021/12/13 02:28:22;;;;;;;1.93;1.70;;;2.90;99.90;2.60;97249.00;;;;5042589;28;20447;-74
2021/12/13 02:31:19;;;;;;;2.10;1.47;;;2.80;99.90;2.60;97267.00;;;;5061297;28;20524;-76
2021/12/13 02:34:13;;;;;;;1.40;1.00;;;2.80;99.90;2.70;97261.00;;;;5053913;28;20442;-76
2021/12/13 02:37:02;;;;;;;2.33;1.10;;;2.80;99.90;2.70;97266.00;;;;5057056;28;20428;-76
2021/12/13 02:39:56;;;;;;;1.60;1.50;;;2.80;99.90;2.50;97257.00;;;;5032482;28;20424;-76
2021/12/13 02:42:47;;;;;;;4.10;1.80;;;2.70;99.90;2.50;97262.00;;;;5044173;28;20835;-76
2021/12/13 02:45:44;;;;;;;2.53;1.90;;;2.70;99.90;2.40;97263.00;;;;5040599;28;20515;-76
2021/12/13 02:48:38;;;;;;;3.83;2.37;;;2.60;99.90;2.30;97265.00;;;;5055069;28;20431;-75
2021/12/13 02:51:34;;;;;;;4.73;3.03;;;2.60;99.90;2.10;97260.00;;;;5045280;28;20566;-76
2021/12/13 02:54:28;;;;;;;4.87;3.17;;;2.50;99.90;2.20;97264.00;;;;5046610;28;20558;-76
2021/12/13 02:57:25;;;;;;;3.93;2.67;;;2.40;99.90;2.20;97259.00;;;;5041154;28;20948;-76
2021/12/13 03:00:23;;;;;;;5.13;2.97;;;2.40;99.90;1.90;97264.00;;;;5059962;28;20797;-76
2021/12/13 03:03:17;;;;;;;4.03;3.10;;;2.30;99.90;1.80;97248.00;;;;5049577;28;20422;-76
2021/12/13 03:06:18;;;;;;;6.13;3.33;;;2.20;99.90;1.90;97247.00;;;;5052655;28;20818;-75
2021/12/13 03:09:10;;;;;;;4.80;2.97;;;2.20;99.90;1.90;97244.00;;;;5045640;28;20427;-76
2021/12/13 03:12:01;;;;;;;3.97;2.80;;;2.10;99.90;1.90;97252.00;;;;5044170;28;20454;-75
2021/12/13 03:14:57;;;;;;;3.43;2.60;;;2.10;99.90;1.80;97252.00;;;;5041323;28;20809;-76
2021/12/13 03:17:51;;;;;;;3.50;2.83;;;2.00;99.90;1.80;97256.00;;;;5033610;28;20816;-76
2021/12/13 03:21:11;;;;;;;2.30;2.10;;;2.00;99.90;1.90;97264.00;;;;5035175;28;20407;-75
2021/12/13 03:24:25;;;;;;;3.10;1.97;;;2.00;99.90;1.90;97256.00;;;;5010476;28;20831;-76
2021/12/13 03:27:34;;;;;;;3.10;1.77;;;2.00;99.90;1.90;97267.00;;;;5045405;28;20457;-75
2021/12/13 03:30:29;;;;;;;1.20;1.10;;;2.00;99.90;1.80;97261.00;;;;5056287;28;20426;-76
2021/12/13 03:33:27;;;;;;;3.50;2.87;;;1.90;99.90;1.60;97272.00;;;;5045685;28;20431;-77
2021/12/13 03:36:21;;;;;;;3.37;2.50;;;2.00;99.90;1.70;97270.00;;;;5052815;28;20474;-76
2021/12/13 03:39:14;;;;;;;2.63;2.43;;;1.90;99.90;1.80;97269.00;;;;5032962;28;20428;-76
2021/12/13 03:42:08;;;;;;;4.27;3.27;;;1.90;99.90;1.50;97280.00;;;;5028051;28;20463;-76
2021/12/13 03:45:07;;;;;;;4.23;3.03;;;1.90;99.90;1.50;97284.00;;;;5030629;28;20799;-76
2021/12/13 03:48:01;;;;;;;4.93;2.90;;;1.80;99.90;1.60;97279.00;;;;5036588;28;20438;-76
2021/12/13 03:50:55;;;;;;;3.20;2.00;;;1.80;99.90;1.70;97278.00;;;;5049153;28;20430;-77
2021/12/13 03:53:50;;;;;;;4.17;2.50;;;1.80;99.90;1.50;97272.00;;;;5033421;28;20428;-75
2021/12/13 03:56:44;;;;;;;4.80;3.33;;;1.80;99.90;1.60;97283.00;;;;5041490;28;20467;-76
2021/12/13 03:59:35;;;;;;;4.53;3.07;;;1.80;99.90;1.70;97282.00;;;;5048719;28;20434;-76
2021/12/13 04:02:32;;;;;;;3.07;2.73;;;1.80;99.90;1.70;97281.00;;;;5052748;28;20446;-76
2021/12/13 04:05:27;;;;;;;4.50;2.63;;;1.80;99.90;1.80;97285.00;;;;5048888;28;20428;-76
2021/12/13 04:08:20;;;;;;;2.97;2.60;;;1.80;99.90;1.80;97291.00;;;;5048600;28;20427;-76
2021/12/13 04:11:12;;;;;;;3.80;2.20;;;1.90;99.90;1.90;97278.00;;;;5039538;28;20451;-76
2021/12/13 04:14:10;;;;;;;2.60;2.37;;;1.90;99.90;1.90;97299.00;;;;5048862;28;20423;-76
2021/12/13 04:17:09;;;;;;;1.60;1.50;;;1.90;99.90;2.00;97297.00;;;;5048373;28;20475;-77
2021/12/13 04:20:00;;;;;;;1.93;1.83;;;2.00;99.90;1.90;97294.00;;;;5046172;28;20431;-76
2021/12/13 04:22:59;;;;;;;3.27;2.80;;;2.00;99.90;1.90;97307.00;;;;5041307;28;20470;-77
2021/12/13 04:25:52;;;;;;;3.50;2.33;;;2.00;99.90;2.00;97305.00;;;;5035241;28;20739;-78
2021/12/13 04:28:45;;;;;;;2.50;2.30;;;2.10;99.90;2.10;97308.00;;;;5036868;28;20934;-77
2021/12/13 04:31:37;;;;;;;1.60;1.33;;;2.10;99.90;2.10;97311.00;;;;5034052;28;20566;-78
2021/12/13 04:34:29;;;;;;;4.57;2.90;;;2.10;99.90;2.00;97311.00;;;;5047448;28;20447;-78
2021/12/13 04:37:37;;;;;;;4.77;2.63;;;2.10;99.90;2.10;97312.00;;;;5050518;28;21011;-77
2021/12/13 04:40:32;;;;;;;3.00;2.30;;;2.10;99.90;2.00;97319.00;;;;5035116;28;20425;-78
2021/12/13 04:43:23;;;;;;;3.07;2.77;;;2.10;99.90;2.10;97309.00;;;;5035911;28;20786;-77
2021/12/13 04:46:14;;;;;;;8.17;3.10;;;2.10;99.90;2.00;97310.00;;;;5043405;28;20749;-77
2021/12/13 04:49:08;;;;;;;4.93;3.07;;;2.10;99.90;1.90;97305.00;;;;5029601;28;20432;-77
2021/12/13 04:52:01;;;;;;;5.10;2.40;;;2.10;99.90;1.80;97305.00;;;;5049137;28;20452;-77
2021/12/13 04:54:55;;;;;;;4.00;2.43;;;2.10;99.90;1.80;97305.00;;;;5048322;28;20442;-77
2021/12/13 04:57:50;;;;;;;4.23;2.57;;;2.00;99.90;1.80;97308.00;;;;5040139;28;20476;-77
2021/12/13 05:00:46;;;;;;;5.83;2.93;;;2.00;99.90;1.80;97301.00;;;;5054979;28;20431;-78
2021/12/13 05:03:39;;;;;;;3.50;2.40;;;2.00;99.90;1.80;97308.00;;;;5046410;28;20844;-78
2021/12/13 05:06:33;;;;;;;5.43;3.43;;;2.00;99.90;1.60;97318.00;;;;5049128;28;20955;-77
2021/12/13 05:09:24;;;;;;;6.33;3.30;;;1.90;99.90;1.70;97319.00;;;;5050448;28;20935;-79
2021/12/13 05:12:19;;;;;;;4.13;3.23;;;1.90;99.90;1.70;97314.00;;;;5047131;28;20451;-78
2021/12/13 05:15:12;;;;;;;7.83;3.33;;;1.90;99.90;1.70;97329.00;;;;5045736;28;20438;-75
2021/12/13 05:18:06;;;;;;;2.90;2.57;;;1.90;99.90;1.60;97314.00;;;;5047996;28;20459;-75
2021/12/13 05:21:05;;;;;;;4.73;3.33;;;1.80;99.90;1.60;97315.00;;;;5047740;28;20454;-77
2021/12/13 05:23:58;;;;;;;3.00;2.67;;;1.80;99.90;1.50;97322.00;;;;5045349;28;20439;-77
2021/12/13 05:26:54;;;;;;;2.93;2.20;;;1.80;99.90;1.60;97321.00;;;;5041485;28;20440;-79
2021/12/13 05:29:47;;;;;;;3.90;2.90;;;1.80;99.90;1.50;97327.00;;;;5026444;28;20439;-78
2021/12/13 05:32:45;;;;;;;3.20;2.83;;;1.70;99.90;1.40;97315.00;;;;5027764;28;20436;-77
2021/12/13 05:35:37;;;;;;;4.07;2.53;;;1.70;99.90;1.30;97309.00;;;;5054548;28;20431;-77
2021/12/13 05:38:32;;;;;;;3.30;2.00;;;1.70;99.90;0.90;97324.00;;;;5044379;28;20973;-78
2021/12/13 05:41:25;;;;;;;2.63;2.27;;;1.60;99.90;1.10;97340.00;;;;5046948;28;20456;-78
2021/12/13 05:44:15;;;;;;;4.27;2.83;;;1.60;99.90;1.00;97329.00;;;;5046091;28;20442;-76
2021/12/13 05:47:09;;;;;;;3.63;2.83;;;1.50;99.90;1.10;97334.00;;;;5034954;28;20431;-77
2021/12/13 05:50:00;;;;;;;6.07;2.87;;;1.40;99.90;1.20;97353.00;;;;5036616;28;20660;-77
2021/12/13 05:53:07;;;;;;;3.70;2.50;;;1.40;99.90;1.20;97350.00;;;;5033097;28;20447;-76
2021/12/13 05:56:06;;;;;;;3.57;2.60;;;1.40;99.90;1.20;97345.00;;;;5046179;28;20522;-77
2021/12/13 05:58:59;;;;;;;3.97;3.07;;;1.40;99.90;1.30;97346.00;;;;5052664;28;20439;-76
2021/12/13 06:02:08;;;;;;;4.83;2.50;;;1.40;99.90;1.30;97367.00;;;;5047368;28;20467;-74
2021/12/13 06:05:04;;;;;;;2.67;2.40;;;1.40;99.90;1.30;97354.00;;;;5046260;28;20435;-77
2021/12/13 06:07:56;;;;;;;3.27;2.27;;;1.40;99.90;1.20;97367.00;;;;5057364;28;20423;-76
2021/12/13 06:10:51;;;;;;;3.20;2.67;;;1.50;99.90;1.00;97372.00;;;;5056253;28;20439;-76
2021/12/13 06:14:07;;;;;;;2.90;2.70;;;1.40;99.90;1.10;97370.00;;;;5034852;28;20517;-76
2021/12/13 06:17:06;;;;;;;3.20;2.60;;;1.40;99.90;1.10;97361.00;;;;5051241;28;20462;-79
2021/12/13 06:20:00;;;;;;;3.30;2.13;;;1.40;99.90;1.10;97375.00;;;;5051967;28;20434;-76
2021/12/13 06:22:49;;;;;;;4.87;3.30;;;1.40;99.90;1.00;97393.00;;;;5045651;28;20672;-76
2021/12/13 06:25:42;;;;;;;4.83;2.83;;;1.30;99.90;1.10;97376.00;;;;5047839;28;20434;-76
2021/12/13 06:28:35;;;;;;;2.30;2.10;;;1.30;99.90;0.80;97385.00;;;;5044952;28;20446;-76
2021/12/13 06:31:27;;;;;;;5.97;3.40;;;1.30;99.90;0.60;97396.00;;;;5049978;28;20443;-78
2021/12/13 06:34:18;;;;;;;4.87;2.70;;;2.20;99.90;0.80;97399.00;;;;5043234;28;20426;-77
2021/12/13 06:37:08;;;;;;;4.67;3.10;;;1.20;99.90;0.80;97395.00;;;;5037126;28;20474;-75
2021/12/13 06:40:27;;;;;;;11.30;4.63;;;1.10;99.90;0.60;97397.00;;;;5039517;28;20431;-75
2021/12/13 06:43:29;;;;;;;6.67;4.37;;;1.10;99.90;0.60;97398.00;;;;5046197;28;20427;-76
2021/12/13 06:46:46;;;;;;;5.03;3.37;;;1.10;99.90;0.70;97404.00;;;;5048374;28;20431;-80
2021/12/13 06:49:40;;;;;;;3.27;2.87;;;1.10;99.90;0.80;97402.00;;;;5047196;28;20800;-81
2021/12/13 06:52:33;;;;;;;4.43;2.13;;;1.10;99.90;0.80;97409.00;;;;5049681;28;20462;-79
2021/12/13 06:55:22;;;;;;;2.90;1.90;;;1.20;99.90;0.90;97416.00;;;;5047778;28;21229;-78
2021/12/13 06:58:21;;;;;;;2.77;2.23;;;1.20;99.90;0.90;97416.00;;;;5035796;28;20473;-78
2021/12/13 07:01:11;;;;;;;4.20;2.33;;;1.20;99.90;0.70;97411.00;;;;5048027;28;20450;-78
2021/12/13 07:04:08;;;;;;;1.87;1.73;;;1.20;99.90;0.60;97406.00;;;;5048593;28;20785;-79
2021/12/13 07:07:11;;;;;;;2.13;1.73;;;1.10;99.90;0.60;97424.00;;;;5045412;28;20426;-81
2021/12/13 07:10:11;;;;;;;3.37;2.50;;;1.10;99.90;0.90;97432.00;;;;5046214;28;20801;-80
2021/12/13 07:13:07;;;;;;;7.43;2.50;;;1.10;99.90;1.00;97429.00;;;;5050049;28;20824;-80
2021/12/13 07:16:01;;;;;;;2.57;2.10;;;1.10;99.90;1.10;97431.00;;;;5049147;28;20427;-80
2021/12/13 07:18:57;;;;;;;2.90;2.30;;;1.20;99.90;1.10;97424.00;;;;5039550;28;20451;-81
2021/12/13 07:21:56;;;;;;;3.97;2.37;;;1.20;99.90;1.10;97444.00;;;;5051879;28;20802;-79
2021/12/13 07:24:48;;;;;;;4.47;2.67;;;1.30;99.90;1.20;97443.00;;;;5050511;28;21065;-80
2021/12/13 07:27:50;;;;;;;3.47;2.40;;;1.30;99.90;1.30;97455.00;;;;5051468;28;20446;-81
2021/12/13 07:30:44;;;;;;;3.03;2.57;;;1.40;99.90;1.00;97449.00;;;;5048549;28;20427;-79
2021/12/13 07:33:42;;;;;;;2.07;1.83;;;1.40;99.90;1.00;97449.00;;;;5054926;28;20434;-82
2021/12/13 07:36:31;;;;;;;3.73;1.57;;;1.40;99.90;1.00;97452.00;;;;5063443;28;20426;-81
2021/12/13 07:39:22;;;;;;;2.10;1.90;;;1.40;99.90;1.00;97449.00;;;;5059487;28;20687;-79
2021/12/13 07:42:14;;;;;;;3.40;1.60;;;1.40;99.90;0.80;97451.00;;;;5054687;28;20443;-79
2021/12/13 07:45:26;;;;;;;2.73;1.90;;;1.30;99.90;0.90;97454.00;;;;5041177;28;20439;-77
2021/12/13 07:48:19;;;;;;;7.93;2.03;;;1.30;99.90;1.30;97449.00;;;;5039826;28;20419;-77
2021/12/13 07:51:14;;;;;;;35.70;24.00;;;1.40;99.90;1.20;97449.00;;;;5050097;28;20451;-75
2021/12/13 07:54:07;;;;;;;21.67;16.57;;;1.40;99.90;1.30;97448.00;;;;5051451;28;20430;-76
2021/12/13 07:57:00;;;;;;;6.70;3.80;;;1.40;99.90;1.60;97457.00;;;;5047130;28;20433;-79
2021/12/13 07:59:51;;;;;;;11.80;3.87;;;1.50;99.90;1.60;97467.00;;;;5054253;28;20810;-76
2021/12/13 08:02:53;;;;;;;13.03;8.63;;;1.60;99.90;1.60;97467.00;;;;5047887;28;20462;-76
2021/12/13 08:05:50;;;;;;;42.53;26.93;;;1.70;99.90;1.80;97458.00;;;;5044273;28;20427;-77
2021/12/13 08:08:49;;;;;;;40.20;22.97;;;1.70;99.90;1.60;97459.00;;;;5053833;28;20435;-76
2021/12/13 08:11:48;;;;;;;6.90;5.97;;;1.80;99.90;1.40;97454.00;;;;5052044;28;20461;-76
2021/12/13 08:14:41;;;;;;;3.00;2.37;;;1.80;99.90;1.70;97463.00;;;;5053806;28;20434;-76
2021/12/13 08:17:32;;;;;;;2.87;1.87;;;1.80;99.90;1.80;97452.00;;;;5057586;28;20467;-76
2021/12/13 08:20:31;;;;;;;3.13;1.97;;;1.90;99.90;1.90;97453.00;;;;5035296;28;20441;-75
2021/12/13 08:23:24;;;;;;;5.07;3.53;;;2.00;99.90;2.30;97459.00;;;;5049226;28;20938;-76
2021/12/13 08:26:25;;;;;;;4.03;2.17;;;2.10;99.90;2.50;97469.00;;;;5049942;28;20439;-76
2021/12/13 08:29:21;;;;;;;3.23;2.60;;;2.20;99.90;2.30;97473.00;;;;5050576;28;20427;-76
2021/12/13 08:32:16;;;;;;;4.43;2.33;;;2.30;99.90;2.30;97479.00;;;;5051703;28;20447;-75
2021/12/13 08:35:13;;;;;;;3.07;2.77;;;2.40;99.90;2.30;97466.00;;;;5043513;28;20454;-78
2021/12/13 08:38:08;;;;;;;3.87;2.33;;;2.50;99.90;2.60;97471.00;;;;5048203;28;20475;-77
2021/12/13 08:40:59;;;;;;;3.13;2.33;;;2.50;99.90;2.80;97484.00;;;;5048910;28;20433;-78
2021/12/13 08:43:51;;;;;;;2.63;2.23;;;2.60;99.90;3.00;97470.00;;;;5048136;28;20447;-76
2021/12/13 08:46:45;;;;;;;4.17;1.70;;;2.70;99.90;3.00;97486.00;;;;5032387;28;20440;-77
2021/12/13 08:49:40;;;;;;;6.90;2.70;;;2.80;99.90;3.00;97487.00;;;;5036019;28;20428;-77
2021/12/13 08:52:33;;;;;;;3.13;2.10;;;2.90;99.90;3.10;97491.00;;;;5047715;28;20455;-77
2021/12/13 08:55:30;;;;;;;2.90;1.70;;;3.00;99.90;3.20;97485.00;;;;5048032;28;20424;-76
2021/12/13 08:58:21;;;;;;;2.20;2.00;;;3.00;99.90;3.40;97495.00;;;;5055169;28;20481;-79
2021/12/13 09:01:13;;;;;;;9.20;2.20;;;3.10;99.90;3.60;97493.00;;;;5057610;28;20455;-80
2021/12/13 09:04:03;;;;;;;4.73;2.00;;;3.20;99.90;3.50;97495.00;;;;5053259;28;21001;-80
2021/12/13 09:07:00;;;;;;;8.17;2.87;;;3.40;99.90;3.30;97493.00;;;;5058842;28;20501;-79
2021/12/13 09:09:49;;;;;;;3.27;2.53;;;3.40;99.90;3.30;97489.00;;;;5049053;28;20201;-78
2021/12/13 09:12:44;;;;;;;5.00;3.00;;;3.40;99.90;3.40;97497.00;;;;5049545;28;20234;-80
2021/12/13 09:15:35;;;;;;;4.70;2.60;;;3.40;99.90;3.40;97500.00;;;;5053705;28;20204;-77
2021/12/13 09:18:24;;;;;;;7.77;2.90;;;3.50;99.90;3.20;97481.00;;;;5049248;28;20231;-80
2021/12/13 09:21:18;;;;;;;3.63;2.40;;;3.40;99.90;3.10;97489.00;;;;5045735;28;20448;-80
2021/12/13 09:24:10;;;;;;;2.90;2.33;;;3.40;99.90;2.90;97490.00;;;;5037535;28;20590;-80
2021/12/13 09:27:23;;;;;;;4.47;2.23;;;3.30;99.90;2.80;97490.00;;;;5051039;28;20212;-80
2021/12/13 09:30:33;;;;;;;2.83;2.33;;;3.10;99.90;2.60;97474.00;;;;5050374;28;20803;-79
2021/12/13 09:33:27;;;;;;;3.47;2.63;;;3.00;99.90;2.70;97464.00;;;;5044609;28;20826;-79
2021/12/13 09:36:21;;;;;;;6.47;3.13;;;3.00;99.90;2.90;97488.00;;;;5043490;28;20779;-80
2021/12/13 09:39:17;;;;;;;6.20;3.90;;;2.90;99.90;2.60;97464.00;;;;5046304;28;20470;-80
2021/12/13 09:42:11;;;;;;;5.43;3.50;;;2.90;99.90;2.90;97470.00;;;;5057669;28;20818;-80
2021/12/13 09:45:07;;;;;;;8.33;4.30;;;2.90;99.90;3.00;97462.00;;;;5036015;28;20426;-81
2021/12/13 09:47:59;;;;;;;10.57;6.30;;;3.00;99.90;3.00;97449.00;;;;5047731;28;20531;-80
2021/12/13 09:50:52;;;;;;;9.43;5.63;;;3.00;99.90;2.40;97443.00;;;;5047352;28;21214;-80
2021/12/13 09:53:43;;;;;;;9.67;5.03;;;3.00;99.90;2.60;97459.00;;;;5046785;28;20431;-76
2021/12/13 09:56:37;;;;;;;9.23;4.63;;;2.90;99.90;2.70;97452.00;;;;5036757;28;20420;-80
2021/12/13 09:59:30;;;;;;;4.30;2.93;;;2.90;99.90;2.60;97440.00;;;;5053613;28;21059;-79
2021/12/13 10:02:25;;;;;;;8.90;4.37;;;2.90;99.90;2.90;97450.00;;;;5059377;28;20469;-78
2021/12/13 10:05:20;;;;;;;6.90;3.43;;;2.90;99.90;3.20;97438.00;;;;5048068;28;21264;-79
2021/12/13 10:08:14;;;;;;;5.27;3.30;;;3.00;99.90;3.40;97437.00;;;;5051761;28;20427;-78
2021/12/13 10:11:13;;;;;;;4.63;3.73;;;3.10;99.90;3.50;97438.00;;;;5056063;28;20455;-78
2021/12/13 10:14:04;;;;;;;3.13;2.80;;;3.20;99.90;3.50;97425.00;;;;5035502;28;20211;-79
2021/12/13 10:16:57;;;;;;;4.77;3.27;;;3.30;99.90;3.80;97438.00;;;;5046691;28;20423;-79
2021/12/13 10:19:55;;;;;;;4.70;3.50;;;3.50;99.90;3.90;97437.00;;;;5030332;28;20221;-80
2021/12/13 10:22:46;;;;;;;4.20;2.93;;;3.60;99.90;3.80;97426.00;;;;5036306;28;20513;-79
2021/12/13 10:25:45;;;;;;;9.63;5.30;;;3.70;99.90;4.00;97435.00;;;;5043285;28;20189;-79
2021/12/13 10:28:42;;;;;;;8.87;6.33;;;3.80;99.90;3.80;97428.00;;;;5035866;28;20196;-78
2021/12/13 10:31:36;;;;;;;6.10;3.93;;;3.80;99.90;3.50;97413.00;;;;5047787;28;20220;-78
2021/12/13 10:34:28;;;;;;;3.03;2.30;;;3.80;99.90;3.40;97425.00;;;;5045747;28;20205;-78
2021/12/13 10:37:22;;;;;;;6.57;2.50;;;3.80;99.90;3.60;97427.00;;;;5035644;28;20205;-77
2021/12/13 10:40:19;;;;;;;4.17;2.23;;;3.80;99.90;3.70;97422.00;;;;5048359;28;20228;-78
2021/12/13 10:43:13;;;;;;;2.67;2.40;;;3.70;99.90;4.30;97430.00;;;;5047472;28;20235;-78
2021/12/13 10:46:10;;;;;;;4.90;3.33;;;3.80;99.90;4.50;97429.00;;;;5048613;28;20219;-78
2021/12/13 10:49:11;;;;;;;5.30;3.13;;;4.00;99.90;4.70;97437.00;;;;5048620;28;20200;-78
2021/12/13 10:52:10;;;;;;;4.57;2.83;;;4.10;99.90;4.90;97434.00;;;;5045780;28;20229;-78
2021/12/13 10:55:04;;;;;;;4.80;2.80;;;4.30;99.90;4.90;97445.00;;;;5041572;28;20204;-78
2021/12/13 10:57:55;;;;;;;10.10;5.20;;;4.50;99.90;5.10;97434.00;;;;5049650;28;20200;-77
2021/12/13 11:00:51;;;;;;;6.30;4.60;;;4.60;99.90;5.30;97434.00;;;;5051857;28;20220;-78
2021/12/13 11:03:42;;;;;;;11.97;5.67;;;4.80;99.90;5.50;97433.00;;;;5053676;28;20195;-78
2021/12/13 11:06:33;;;;;;;9.13;5.23;;;4.90;99.90;5.00;97433.00;;;;5039721;28;20216;-75
2021/12/13 11:09:25;;;;;;;6.37;4.57;;;5.00;99.90;4.70;97448.00;;;;5041276;28;20204;-74
2021/12/13 11:12:19;;;;;;;8.50;5.10;;;5.00;99.90;5.00;97442.00;;;;5040436;28;20239;-75
2021/12/13 11:15:16;;;;;;;9.43;5.70;;;4.90;99.90;5.30;97445.00;;;;5047660;28;20208;-75
2021/12/13 11:18:12;;;;;;;10.57;5.33;;;4.90;99.90;5.20;97447.00;;;;5046600;28;20204;-75
2021/12/13 11:21:06;;;;;;;8.00;5.50;;;5.00;99.90;5.20;97439.00;;;;5049989;28;20196;-77
2021/12/13 11:23:57;;;;;;;9.10;5.33;;;5.10;99.90;5.20;97445.00;;;;5044143;28;20204;-78
2021/12/13 11:26:50;;;;;;;14.43;6.10;;;5.10;99.90;5.20;97438.00;;;;5055642;28;20209;-76
2021/12/13 11:29:42;;;;;;;13.23;6.27;;;5.10;99.90;5.20;97424.00;;;;5039707;28;20299;-77
2021/12/13 11:33:48;;;;;;;10.87;5.50;;;5.20;99.90;6.30;97395.00;;;;5047103;28;20739;-77
2021/12/13 11:37:07;;;;;;;11.13;6.17;;;5.50;99.90;8.40;97414.00;;;;5041819;28;20266;-77
2021/12/13 11:40:21;;;;;;;6.70;5.20;;;6.60;99.90;9.70;97418.00;;;;5046201;28;20224;-78
2021/12/13 11:43:34;;;;;;;12.73;5.23;;;8.00;99.90;10.70;97419.00;;;;5051886;28;20228;-78
2021/12/13 11:47:28;;;;;;;12.77;6.53;;;9.30;99.90;11.60;97425.00;;;;5042316;28;20201;-77
2021/12/13 11:51:01;;;;;;;10.67;6.23;;;10.70;99.90;12.20;97428.00;;;;5045817;28;20637;-79
2021/12/13 11:54:27;;;;;;;13.30;7.63;;;11.70;97.50;12.40;97445.00;;;;5040255;28;20405;-79
2021/12/13 11:58:04;;;;;;;15.75;8.13;;;12.50;90.50;12.90;97451.00;;;;5055947;28;20392;-79
2021/12/13 12:01:48;;;;;;;11.93;6.20;;;13.00;83.50;12.00;97447.00;;;;5044787;28;20239;-78
2021/12/13 12:05:40;;;;;;;13.27;5.97;;;12.90;80.10;13.00;97440.00;;;;5048196;28;20263;-79
2021/12/13 12:09:21;;;;;;;11.13;6.10;;;13.10;78.50;13.50;97425.00;;;;5055455;28;20223;-78
2021/12/13 12:12:29;;;;;;;9.47;5.70;;;13.70;74.90;13.60;97427.00;;;;5027651;28;20228;-79
2021/12/13 12:15:20;;;;;;;9.90;5.93;;;14.20;71.70;14.60;97438.00;;;;5018770;28;20208;-79
2021/12/13 12:18:15;;;;;;;12.27;5.23;;;14.70;69.80;15.30;97450.00;;;;5048411;28;20209;-79
2021/12/13 12:21:39;;;;;;;12.70;6.17;;;15.30;67.10;15.00;97460.00;;;;5050495;28;20299;-80
2021/12/13 12:24:35;;;;;;;13.30;6.13;;;15.80;63.90;13.80;97467.00;;;;5052832;28;20214;-80
2021/12/13 12:27:28;;;;;;;10.93;6.30;;;15.50;62.30;12.20;97462.00;;;;5055796;28;20227;-80
2021/12/13 12:30:22;;;;;;;8.77;5.33;;;14.60;63.00;11.10;97457.00;;;;5050802;28;20575;-78
2021/12/13 12:33:20;;;;;;;13.00;6.57;;;13.50;64.70;10.60;97444.00;;;;5049716;28;20224;-77
2021/12/13 12:36:20;;;;;;;12.97;5.83;;;12.60;67.20;10.80;97447.00;;;;5054845;28;20213;-79
2021/12/13 12:39:54;;;;;;;7.00;4.90;;;11.90;70.00;10.60;97447.00;;;;5049326;28;20207;-79
2021/12/13 12:42:49;;;;;;;10.57;5.50;;;11.60;71.80;10.60;97412.00;;;;5047430;28;20228;-79
2021/12/13 12:45:42;;;;;;;11.30;6.00;;;11.40;72.40;11.70;97451.00;;;;5048952;28;20570;-78
2021/12/13 12:48:35;;;;;;;9.20;5.03;;;11.60;73.20;12.00;97449.00;;;;5052688;28;20200;-80
2021/12/13 12:51:27;;;;;;;13.83;7.20;;;11.90;72.60;11.20;97471.00;;;;5033986;28;20217;-79
2021/12/13 12:54:19;;;;;;;12.67;6.97;;;11.80;72.10;11.00;97458.00;;;;5050471;28;20212;-79
2021/12/13 12:57:08;;;;;;;12.53;6.90;;;11.60;72.80;11.00;97465.00;;;;5046145;28;20209;-76
2021/12/13 12:59:58;;;;;;;15.60;7.10;;;11.40;73.50;10.50;97459.00;;;;5051624;28;20221;-76
2021/12/13 13:02:58;;;;;;;16.37;7.67;;;11.20;73.80;10.20;97452.00;;;;5054772;28;20234;-77
2021/12/13 13:05:46;;;;;;;16.03;7.10;;;10.90;74.80;10.00;97463.00;;;;5044422;28;20247;-78
2021/12/13 13:08:42;;;;;;;14.60;7.70;;;10.70;75.70;10.30;97456.00;;;;5060758;28;20200;-77
2021/12/13 13:11:34;;;;;;;13.20;6.97;;;10.60;76.40;10.00;97455.00;;;;5031910;28;20227;-77
2021/12/13 13:14:28;;;;;;;18.03;7.07;;;10.50;76.70;9.80;97457.00;;;;5048622;28;20197;-78
2021/12/13 13:17:23;;;;;;;14.17;8.10;;;10.40;77.30;9.70;97461.00;;;;5051084;28;20204;-78
2021/12/13 13:20:19;;;;;;;12.67;6.47;;;10.20;77.70;9.60;97460.00;;;;5049227;28;20224;-78
2021/12/13 13:23:11;;;;;;;15.97;7.23;;;10.00;79.20;9.30;97462.00;;;;5058925;28;20353;-77
2021/12/13 13:26:05;;;;;;;10.53;6.30;;;9.80;80.00;8.90;97454.00;;;;5051759;28;20894;-78
2021/12/13 13:28:57;;;;;;;15.10;7.07;;;9.50;80.20;9.10;97441.00;;;;5049511;28;20205;-79